Time;durP1;ratioP1;P1;durP2;ratioP2;P2;SDS_P1;SDS_P2;PMS_P1;PMS_P2;Temp;Humidity;BMP_temperature;BMP_pressure;BME280_temperature;BME280_humidity;BME280_pressure;Samples;Min_cycle;Max_cycle;Signal;HPM_P1;HPM_P2
2022/11/02 00:01:41;;;;;;;5.20;1.50;;;9.80;1.00;;;;;;5044209;28;20213;-79
2022/11/02 00:04:07;;;;;;;5.33;1.20;;;9.70;1.00;;;;;;5036768;28;20259;-79
2022/11/02 00:06:33;;;;;;;7.70;2.17;;;9.50;1.00;;;;;;5036026;28;20282;-81
2022/11/02 00:08:59;;;;;;;3.90;1.53;;;9.30;1.00;;;;;;5044055;28;20701;-81
2022/11/02 00:11:24;;;;;;;5.27;1.50;;;9.20;1.00;;;;;;5037497;28;20195;-80
2022/11/02 00:13:50;;;;;;;6.73;1.50;;;9.80;1.00;;;;;;5037378;28;20190;-80
2022/11/02 00:16:18;;;;;;;3.60;1.40;;;9.20;1.00;;;;;;5043643;28;20656;-79
2022/11/02 00:18:47;;;;;;;6.53;1.60;;;9.00;1.00;;;;;;5036398;28;20190;-80
2022/11/02 00:21:16;;;;;;;5.83;1.60;;;8.80;1.00;;;;;;5037513;28;20179;-82
2022/11/02 00:23:41;;;;;;;6.40;1.47;;;9.70;1.00;;;;;;5039262;28;20194;-80
2022/11/02 00:26:08;;;;;;;5.00;1.50;;;8.90;1.00;;;;;;5035917;28;20218;-80
2022/11/02 00:28:34;;;;;;;4.40;1.60;;;9.10;1.00;;;;;;5034712;28;20585;-80
2022/11/02 00:30:59;;;;;;;5.97;1.60;;;9.00;1.00;;;;;;5035081;28;20678;-80
2022/11/02 00:33:25;;;;;;;5.30;1.27;;;9.00;1.00;;;;;;5035639;28;20189;-79
2022/11/02 00:35:53;;;;;;;6.27;1.97;;;9.50;1.00;;;;;;5043201;28;20679;-79
2022/11/02 00:38:18;;;;;;;7.57;1.80;;;9.80;1.00;;;;;;5037252;28;20217;-79
2022/11/02 00:40:44;;;;;;;5.53;1.50;;;9.30;1.00;;;;;;5043370;28;20194;-79
2022/11/02 00:43:09;;;;;;;5.40;1.87;;;9.40;1.00;;;;;;5036545;28;20215;-81
2022/11/02 00:45:35;;;;;;;6.30;2.17;;;9.50;1.00;;;;;;5036992;28;20228;-79
2022/11/02 00:48:00;;;;;;;5.13;1.40;;;9.40;1.00;;;;;;5037241;28;20179;-79
2022/11/02 00:50:26;;;;;;;6.53;1.57;;;10.50;1.00;;;;;;5036917;28;21292;-79
2022/11/02 00:52:52;;;;;;;7.67;1.80;;;10.00;1.00;;;;;;5044023;28;20202;-79
2022/11/02 00:55:17;;;;;;;9.13;2.90;;;9.90;1.00;;;;;;5037788;28;20199;-80
2022/11/02 00:57:43;;;;;;;7.80;1.80;;;10.40;1.00;;;;;;5038024;28;20178;-80
2022/11/02 01:00:10;;;;;;;4.90;1.53;;;10.20;1.00;;;;;;5040180;28;20187;-80
2022/11/02 01:02:37;;;;;;;7.07;1.73;;;10.50;1.00;;;;;;5040773;28;20218;-80
2022/11/02 01:05:04;;;;;;;9.03;2.13;;;10.70;1.00;;;;;;5038144;28;20211;-79
2022/11/02 01:07:30;;;;;;;7.10;1.73;;;10.70;1.00;;;;;;5037661;28;20377;-80
2022/11/02 01:09:55;;;;;;;6.67;1.70;;;11.50;1.00;;;;;;5040848;28;20258;-79
2022/11/02 01:12:21;;;;;;;9.73;2.07;;;11.00;1.00;;;;;;5038942;28;20215;-79
2022/11/02 01:14:48;;;;;;;9.20;1.57;;;10.90;1.00;;;;;;5041602;28;20963;-79
2022/11/02 01:17:14;;;;;;;9.03;2.97;;;10.90;1.00;;;;;;5038235;28;20209;-80
2022/11/02 01:19:40;;;;;;;8.27;1.77;;;11.00;1.00;;;;;;5040303;28;20187;-79
2022/11/02 01:22:05;;;;;;;11.30;2.53;;;10.80;1.00;;;;;;5046130;28;20220;-79
2022/11/02 01:24:31;;;;;;;6.47;1.97;;;11.50;1.00;;;;;;5039924;28;20264;-79
2022/11/02 01:26:57;;;;;;;6.90;1.63;;;10.90;1.00;;;;;;5046211;28;20202;-79
2022/11/02 01:29:22;;;;;;;5.80;1.83;;;11.00;1.00;;;;;;5038705;28;20673;-81
2022/11/02 01:31:48;;;;;;;7.83;1.70;;;10.90;1.00;;;;;;5039554;28;20207;-79
2022/11/02 01:34:14;;;;;;;8.87;1.77;;;11.90;1.00;;;;;;5039462;28;20197;-79
2022/11/02 01:36:40;;;;;;;6.93;1.60;;;10.80;1.00;;;;;;5046071;28;20206;-79
2022/11/02 01:39:06;;;;;;;5.83;1.60;;;11.60;1.00;;;;;;5039663;28;20183;-79
2022/11/02 01:41:31;;;;;;;12.73;2.20;;;10.50;1.00;;;;;;5037633;28;20194;-79
2022/11/02 01:44:00;;;;;;;8.03;1.70;;;10.40;1.00;;;;;;5039917;28;20221;-79
2022/11/02 01:46:38;;;;;;;6.77;1.90;;;10.80;1.00;;;;;;5038021;28;20210;-80
2022/11/02 01:49:09;;;;;;;10.70;2.17;;;10.50;1.00;;;;;;5037425;28;20178;-79
2022/11/02 01:51:39;;;;;;;6.83;1.67;;;10.70;1.00;;;;;;5039165;28;20182;-80
2022/11/02 01:54:14;;;;;;;8.97;2.13;;;10.80;1.00;;;;;;5038299;28;20562;-79
2022/11/02 01:56:42;;;;;;;5.67;1.33;;;10.60;1.00;;;;;;5037276;28;20194;-79
2022/11/02 01:59:13;;;;;;;7.50;1.87;;;10.70;1.00;;;;;;5037137;28;20178;-79
2022/11/02 02:01:39;;;;;;;5.30;1.50;;;10.80;1.00;;;;;;5039436;28;20245;-79
2022/11/02 02:04:04;;;;;;;9.60;1.77;;;10.80;1.00;;;;;;5046058;28;20205;-81
2022/11/02 02:06:31;;;;;;;5.93;1.60;;;10.90;1.00;;;;;;5039026;28;20621;-79
2022/11/02 02:09:01;;;;;;;6.27;1.40;;;10.70;1.00;;;;;;5038843;28;20187;-79
2022/11/02 02:11:35;;;;;;;8.77;1.80;;;10.90;1.00;;;;;;5039362;28;20186;-79
2022/11/02 02:14:05;;;;;;;9.23;1.87;;;10.80;1.00;;;;;;5038936;28;20224;-79
2022/11/02 02:16:33;;;;;;;10.17;1.73;;;10.80;1.00;;;;;;5037132;28;20289;-79
2022/11/02 02:19:04;;;;;;;6.53;1.50;;;10.70;1.00;;;;;;5039775;28;20244;-80
2022/11/02 02:21:56;;;;;;;7.43;1.80;;;10.70;1.00;;;;;;5040440;28;20311;-81
2022/11/02 02:25:09;;;;;;;7.17;1.70;;;10.80;1.00;;;;;;5036324;28;20728;-79
2022/11/02 02:28:20;;;;;;;8.33;1.73;;;10.80;1.00;;;;;;5039025;28;20190;-80
2022/11/02 02:30:53;;;;;;;7.43;1.70;;;10.80;1.00;;;;;;5037652;28;20185;-79
2022/11/02 02:33:34;;;;;;;9.43;2.07;;;10.80;1.00;;;;;;5038842;28;20187;-79
2022/11/02 02:36:09;;;;;;;5.60;1.20;;;10.70;1.00;;;;;;5040518;28;20343;-80
2022/11/02 02:38:52;;;;;;;3.07;1.20;;;10.50;1.00;;;;;;5045419;28;20182;-80
2022/11/02 02:41:24;;;;;;;9.37;1.90;;;10.30;1.00;;;;;;5046529;28;20186;-79
2022/11/02 02:43:52;;;;;;;8.20;2.10;;;10.30;1.00;;;;;;5038603;28;21116;-79
2022/11/02 02:46:18;;;;;;;7.77;1.40;;;10.30;1.00;;;;;;5040044;28;20231;-79
2022/11/02 02:48:45;;;;;;;7.27;1.67;;;11.40;1.00;;;;;;5037243;28;20190;-80
2022/11/02 02:51:21;;;;;;;8.17;2.07;;;10.80;1.00;;;;;;5037693;28;20560;-79
2022/11/02 02:53:51;;;;;;;9.57;2.03;;;10.10;1.00;;;;;;5038211;28;20178;-80
2022/11/02 02:56:20;;;;;;;5.33;1.73;;;10.20;1.00;;;;;;5038767;28;20333;-79
2022/11/02 02:59:07;;;;;;;6.97;1.90;;;10.40;1.00;;;;;;5037804;28;20590;-81
2022/11/02 03:01:34;;;;;;;6.57;1.50;;;10.30;1.00;;;;;;5036665;28;20194;-79
2022/11/02 03:04:00;;;;;;;7.00;2.17;;;10.50;1.00;;;;;;5037567;28;20221;-79
2022/11/02 03:06:32;;;;;;;5.13;1.77;;;10.70;1.00;;;;;;5034868;28;20209;-79
2022/11/02 03:09:11;;;;;;;7.70;1.93;;;10.30;1.00;;;;;;5044389;28;20197;-80
2022/11/02 03:11:50;;;;;;;7.27;1.70;;;10.30;1.00;;;;;;5036400;28;20257;-79
2022/11/02 03:14:31;;;;;;;4.20;1.33;;;10.40;1.00;;;;;;5035128;28;20178;-79
2022/11/02 03:17:16;;;;;;;6.67;1.50;;;10.40;1.00;;;;;;5035674;28;20206;-79
2022/11/02 03:20:03;;;;;;;10.10;1.67;;;10.40;1.00;;;;;;5035860;28;20183;-79
2022/11/02 03:22:38;;;;;;;7.33;1.50;;;10.50;1.00;;;;;;5037537;28;20221;-79
2022/11/02 03:25:22;;;;;;;7.60;1.83;;;10.60;1.00;;;;;;5043531;28;20186;-80
2022/11/02 03:28:01;;;;;;;8.97;1.80;;;10.60;1.00;;;;;;5036982;28;20581;-79
2022/11/02 03:30:33;;;;;;;4.30;1.23;;;10.60;1.00;;;;;;5037260;28;20241;-80
2022/11/02 03:33:18;;;;;;;7.40;1.80;;;10.70;1.00;;;;;;5037370;28;20186;-79
2022/11/02 03:36:01;;;;;;;8.83;1.83;;;10.90;1.00;;;;;;5036262;28;20223;-79
2022/11/02 03:38:43;;;;;;;11.17;1.80;;;10.80;1.00;;;;;;5036572;28;20186;-79
2022/11/02 03:41:10;;;;;;;7.27;1.53;;;11.00;1.00;;;;;;5035437;28;20240;-79
2022/11/02 03:43:39;;;;;;;8.77;2.10;;;11.10;1.00;;;;;;5035117;28;20226;-80
2022/11/02 03:46:07;;;;;;;9.53;1.87;;;11.20;1.00;;;;;;5036773;28;20690;-80
2022/11/02 03:48:43;;;;;;;5.57;1.60;;;11.30;1.00;;;;;;5037779;28;20540;-80
2022/11/02 03:51:12;;;;;;;6.00;1.73;;;11.40;1.00;;;;;;5050687;28;20182;-79
2022/11/02 03:53:52;;;;;;;6.57;1.53;;;11.40;1.00;;;;;;5037219;28;20179;-79
2022/11/02 03:56:38;;;;;;;4.23;1.30;;;11.60;1.00;;;;;;5035368;28;20206;-79
2022/11/02 03:59:04;;;;;;;7.03;1.67;;;11.50;1.00;;;;;;5036361;28;20182;-80
2022/11/02 04:01:35;;;;;;;7.80;1.55;;;11.60;1.00;;;;;;5035936;28;20191;-79
2022/11/02 04:04:03;;;;;;;8.30;2.03;;;11.70;1.00;;;;;;5035855;28;20198;-80
2022/11/02 04:06:29;;;;;;;9.23;1.93;;;11.60;1.00;;;;;;5035420;28;20655;-80
2022/11/02 04:08:54;;;;;;;7.63;2.10;;;11.60;1.00;;;;;;5036648;28;20237;-80
2022/11/02 04:19:26;;;;;;;6.38;1.55;;;11.70;1.00;;;;;;5036206;28;20252;-79
2022/11/02 04:19:35;;;;;;;5.50;1.38;;;11.80;1.00;;;;;;5034755;28;20280;-79
2022/11/02 04:27:28;;;;;;;7.97;1.75;;;11.70;1.00;;;;;;5036285;28;20268;-79
2022/11/02 04:29:54;;;;;;;8.47;2.00;;;11.70;1.00;;;;;;5037326;28;20219;-79
2022/11/02 04:35:04;;;;;;;7.30;1.95;;;11.70;1.00;;;;;;5041215;28;20271;-80
2022/11/02 04:40:14;;;;;;;7.10;1.60;;;11.80;1.00;;;;;;5040874;28;20202;-79
2022/11/02 04:42:40;;;;;;;9.65;2.00;;;11.60;1.00;;;;;;5040359;28;20269;-80
2022/11/02 04:45:06;;;;;;;6.70;1.60;;;11.60;1.00;;;;;;5047080;28;20274;-79
2022/11/02 04:47:31;;;;;;;6.10;1.60;;;11.50;1.00;;;;;;5040143;28;20239;-80
2022/11/02 04:49:57;;;;;;;9.13;1.67;;;11.50;1.00;;;;;;5039820;28;20666;-80
2022/11/02 04:52:22;;;;;;;10.33;1.87;;;11.60;1.00;;;;;;5038382;28;20185;-79
2022/11/02 04:54:48;;;;;;;6.53;1.25;;;12.10;1.00;;;;;;5040265;28;20206;-79
2022/11/02 04:57:13;;;;;;;4.88;1.38;;;11.60;1.00;;;;;;5039229;28;20275;-79
2022/11/02 04:59:39;;;;;;;3.73;1.27;;;12.10;1.00;;;;;;5038029;28;20201;-81
2022/11/02 05:02:04;;;;;;;6.53;1.80;;;11.80;1.00;;;;;;5039758;28;20710;-80
2022/11/02 05:04:30;;;;;;;8.93;2.03;;;11.70;1.00;;;;;;5038346;28;20221;-81
2022/11/02 05:06:55;;;;;;;6.60;1.70;;;11.80;1.00;;;;;;5039166;28;20202;-80
2022/11/02 05:09:21;;;;;;;6.82;2.10;;;11.80;1.00;;;;;;5045076;28;20223;-80
2022/11/02 05:11:47;;;;;;;8.13;1.80;;;11.80;1.00;;;;;;5038435;28;20554;-80
2022/11/02 05:14:12;;;;;;;5.68;2.22;;;12.00;1.00;;;;;;5037062;28;20178;-81
2022/11/02 05:16:38;;;;;;;5.23;1.60;;;12.10;1.00;;;;;;5041241;28;20302;-80
2022/11/02 05:19:03;;;;;;;9.67;2.27;;;12.00;1.00;;;;;;5039079;28;20179;-79
2022/11/02 05:21:29;;;;;;;7.65;1.98;;;12.00;1.00;;;;;;5037665;28;20186;-79
2022/11/02 05:23:55;;;;;;;9.70;2.47;;;12.00;1.00;;;;;;5040342;28;20674;-82
2022/11/02 05:26:20;;;;;;;7.97;2.00;;;12.00;1.00;;;;;;5037709;28;20203;-80
2022/11/02 05:28:46;;;;;;;8.40;2.10;;;11.90;1.00;;;;;;5038122;28;20178;-80
2022/11/02 05:31:11;;;;;;;10.18;1.90;;;11.70;1.00;;;;;;5039741;28;20186;-80
2022/11/02 05:33:37;;;;;;;5.83;1.90;;;11.60;1.00;;;;;;5039449;28;20197;-79
2022/11/02 05:36:03;;;;;;;6.77;2.60;;;11.50;1.00;;;;;;5045732;28;20198;-80
2022/11/02 05:38:29;;;;;;;6.20;1.93;;;11.50;1.00;;;;;;5053276;28;20191;-80
2022/11/02 05:40:58;;;;;;;7.30;1.83;;;11.60;1.00;;;;;;5052839;28;20708;-79
2022/11/02 05:43:24;;;;;;;6.23;1.70;;;11.60;1.00;;;;;;5038100;28;20218;-80
2022/11/02 05:46:01;;;;;;;11.53;2.50;;;11.30;1.00;;;;;;5037680;28;20294;-80
2022/11/02 05:48:30;;;;;;;5.13;1.60;;;11.40;1.00;;;;;;5037336;28;20182;-80
2022/11/02 05:50:58;;;;;;;7.10;2.30;;;11.40;1.00;;;;;;5038366;28;20171;-80
2022/11/02 05:53:25;;;;;;;9.77;2.87;;;11.30;1.00;;;;;;5039113;28;20187;-80
2022/11/02 05:55:51;;;;;;;7.73;1.60;;;11.30;1.00;;;;;;5038896;28;20284;-79
2022/11/02 05:58:17;;;;;;;5.07;2.27;;;11.20;1.00;;;;;;5045729;28;20207;-79
2022/11/02 06:00:42;;;;;;;8.33;2.27;;;11.20;1.00;;;;;;5038809;28;20183;-81
2022/11/02 06:03:08;;;;;;;7.60;1.67;;;11.00;1.00;;;;;;5037314;28;20249;-80
2022/11/02 06:05:33;;;;;;;6.43;1.70;;;11.10;1.00;;;;;;5038084;28;20210;-79
2022/11/02 06:08:00;;;;;;;7.77;1.67;;;11.00;1.00;;;;;;5038129;28;20182;-79
2022/11/02 06:10:29;;;;;;;6.00;1.57;;;10.90;1.00;;;;;;5045107;28;20206;-79
2022/11/02 06:12:59;;;;;;;8.50;1.77;;;11.00;1.00;;;;;;5038344;28;20254;-80
2022/11/02 06:15:25;;;;;;;9.87;1.93;;;10.90;1.00;;;;;;5037057;28;20210;-80
2022/11/02 06:17:50;;;;;;;7.07;1.77;;;11.10;1.00;;;;;;5036567;28;20307;-79
2022/11/02 06:20:17;;;;;;;8.37;1.90;;;11.30;1.00;;;;;;5045555;28;20236;-80
2022/11/02 06:22:43;;;;;;;5.57;1.50;;;10.80;1.00;;;;;;5036991;28;20558;-80
2022/11/02 06:25:09;;;;;;;7.60;1.90;;;11.00;1.00;;;;;;5038464;28;20686;-79
2022/11/02 06:27:35;;;;;;;7.50;1.83;;;10.90;1.00;;;;;;5038185;28;20257;-79
2022/11/02 06:30:01;;;;;;;6.03;1.73;;;11.10;1.00;;;;;;5035456;28;20642;-80
2022/11/02 06:32:27;;;;;;;6.53;2.03;;;10.90;1.00;;;;;;5036714;28;20199;-80
2022/11/02 06:34:52;;;;;;;9.87;2.00;;;11.00;1.00;;;;;;5036219;28;20261;-79
2022/11/02 06:37:18;;;;;;;5.67;1.60;;;11.20;1.00;;;;;;5035079;28;20236;-79
2022/11/02 06:39:44;;;;;;;7.37;1.63;;;10.80;1.00;;;;;;5037878;28;20186;-80
2022/11/02 06:42:09;;;;;;;6.83;1.50;;;11.80;1.00;;;;;;5036646;28;20212;-79
2022/11/02 06:44:35;;;;;;;5.90;1.70;;;11.00;1.00;;;;;;5043806;28;20737;-79
2022/11/02 06:47:01;;;;;;;5.07;1.47;;;11.00;1.00;;;;;;5037328;28;20203;-79
2022/11/02 06:49:26;;;;;;;9.07;1.80;;;11.00;1.00;;;;;;5035525;28;20179;-81
2022/11/02 06:51:52;;;;;;;7.30;1.63;;;11.70;1.00;;;;;;5037137;28;20178;-80
2022/11/02 06:54:18;;;;;;;7.40;2.20;;;11.10;1.00;;;;;;5036340;28;20179;-81
2022/11/02 06:56:43;;;;;;;8.00;2.40;;;11.00;1.00;;;;;;5036676;28;20332;-80
2022/11/02 06:59:09;;;;;;;9.37;2.77;;;11.10;1.00;;;;;;5036853;28;20187;-80
2022/11/02 07:01:35;;;;;;;5.43;2.53;;;11.60;1.00;;;;;;5035925;28;20182;-79
2022/11/02 07:04:01;;;;;;;8.57;2.30;;;11.00;1.00;;;;;;5037606;28;20248;-80
2022/11/02 07:06:27;;;;;;;6.07;2.10;;;10.90;1.00;;;;;;5043548;28;20204;-80
2022/11/02 07:08:53;;;;;;;6.60;2.17;;;11.30;1.00;;;;;;5036544;28;20606;-80
2022/11/02 07:11:19;;;;;;;7.07;1.93;;;11.00;1.00;;;;;;5035744;28;20220;-80
2022/11/02 07:13:45;;;;;;;10.37;3.07;;;11.10;1.00;;;;;;5036618;28;20189;-79
2022/11/02 07:16:10;;;;;;;6.53;2.40;;;11.00;1.00;;;;;;5033740;28;20206;-80
2022/11/02 07:18:36;;;;;;;6.03;2.27;;;11.10;1.00;;;;;;5035727;28;20197;-80
2022/11/02 07:21:02;;;;;;;6.47;2.80;;;11.30;1.00;;;;;;5034611;28;20193;-79
2022/11/02 07:23:28;;;;;;;7.60;3.50;;;11.60;1.00;;;;;;5035851;28;20190;-80
2022/11/02 07:25:54;;;;;;;8.67;2.00;;;11.10;1.00;;;;;;5036193;28;21360;-79
2022/11/02 07:28:19;;;;;;;4.93;1.60;;;11.20;1.00;;;;;;5043604;28;20186;-79
2022/11/02 07:30:45;;;;;;;7.73;2.20;;;11.20;1.00;;;;;;5035902;28;20182;-79
2022/11/02 07:33:11;;;;;;;9.50;3.90;;;11.30;1.00;;;;;;5042856;28;20194;-80
2022/11/02 07:35:37;;;;;;;11.90;5.27;;;11.20;1.00;;;;;;5033661;28;20222;-79
2022/11/02 07:38:04;;;;;;;13.27;5.17;;;11.30;1.00;;;;;;5036338;28;20186;-80
2022/11/02 07:40:32;;;;;;;9.73;4.10;;;11.20;1.00;;;;;;5036180;28;20214;-80
2022/11/02 07:42:58;;;;;;;7.00;2.17;;;11.30;1.00;;;;;;5034370;28;20191;-85
2022/11/02 07:45:55;;;;;;;14.70;7.75;;;11.40;1.00;;;;;;5043485;28;20296;-89
2022/11/02 07:48:21;;;;;;;7.57;2.50;;;11.10;1.00;;;;;;5032642;28;20596;-86
2022/11/02 07:50:48;;;;;;;7.37;2.23;;;11.20;1.00;;;;;;5034728;28;20185;-89
2022/11/02 07:53:13;;;;;;;8.23;1.97;;;11.50;1.00;;;;;;5034789;28;20194;-82
2022/11/02 07:55:39;;;;;;;7.50;2.17;;;11.70;1.00;;;;;;5035763;28;20215;-87
2022/11/02 07:58:08;;;;;;;4.50;1.60;;;11.40;1.00;;;;;;5040888;28;20201;-84
2022/11/02 08:00:36;;;;;;;6.73;1.97;;;11.40;1.00;;;;;;5042272;28;20257;-83
2022/11/02 08:03:03;;;;;;;8.00;2.20;;;11.60;1.00;;;;;;5031012;28;20224;-81
2022/11/02 08:05:31;;;;;;;6.40;1.90;;;12.00;1.00;;;;;;5033761;28;20222;-83
2022/11/02 08:07:58;;;;;;;7.13;1.80;;;11.70;1.00;;;;;;5034626;28;20181;-83
2022/11/02 08:10:24;;;;;;;7.37;1.90;;;11.70;1.00;;;;;;5033548;28;20244;-84
2022/11/02 08:12:50;;;;;;;7.83;2.00;;;11.80;1.00;;;;;;5031814;28;20216;-83
2022/11/02 08:15:16;;;;;;;5.80;1.60;;;12.40;1.00;;;;;;5034323;28;20213;-81
2022/11/02 08:17:41;;;;;;;4.10;1.40;;;11.90;1.00;;;;;;5035449;28;20191;-82
2022/11/02 08:20:08;;;;;;;3.97;1.50;;;12.10;1.00;;;;;;5034786;28;20190;-83
2022/11/02 08:22:40;;;;;;;4.43;1.48;;;12.30;1.00;;;;;;5042529;28;20190;-82
2022/11/02 08:25:07;;;;;;;4.95;1.92;;;12.50;1.00;;;;;;5036151;28;20213;-84
2022/11/02 08:27:32;;;;;;;4.35;1.42;;;12.70;1.00;;;;;;5035632;28;20239;-83
2022/11/02 08:29:58;;;;;;;6.47;2.30;;;12.90;1.00;;;;;;5034597;28;20186;-81
2022/11/02 08:32:23;;;;;;;11.23;2.00;;;12.90;1.00;;;;;;5033656;28;20183;-83
2022/11/02 08:34:49;;;;;;;6.28;1.52;;;13.10;1.00;;;;;;5034052;28;20198;-82
2022/11/02 08:37:14;;;;;;;9.10;1.70;;;13.10;1.00;;;;;;5035210;28;20642;-79
2022/11/02 08:39:40;;;;;;;4.35;1.58;;;13.20;1.00;;;;;;5032794;28;20191;-85
2022/11/02 08:42:06;;;;;;;6.70;1.90;;;13.30;1.00;;;;;;5042481;28;20217;-82
2022/11/02 08:44:31;;;;;;;4.35;1.50;;;13.40;1.00;;;;;;5042293;28;20554;-82
2022/11/02 08:46:57;;;;;;;4.78;1.40;;;13.30;1.00;;;;;;5029685;28;20199;-84
2022/11/02 08:49:23;;;;;;;5.97;1.77;;;13.40;1.00;;;;;;5037136;28;20220;-82
2022/11/02 08:51:50;;;;;;;5.20;2.03;;;13.40;1.00;;;;;;5029543;28;20206;-84
2022/11/02 08:54:15;;;;;;;7.40;1.73;;;13.30;1.00;;;;;;5038229;28;20190;-83
2022/11/02 08:56:41;;;;;;;5.95;1.70;;;13.20;1.00;;;;;;5034144;28;20198;-84
2022/11/02 08:59:07;;;;;;;4.70;1.65;;;13.10;1.00;;;;;;5042196;28;20914;-82
2022/11/02 09:01:33;;;;;;;7.05;1.60;;;13.40;1.00;;;;;;5032377;28;20209;-83
2022/11/02 09:03:58;;;;;;;4.45;1.70;;;12.90;1.00;;;;;;5032183;28;20714;-83
2022/11/02 09:06:24;;;;;;;3.17;1.38;;;12.80;1.00;;;;;;5039717;28;20202;-81
2022/11/02 09:08:50;;;;;;;5.45;1.50;;;12.90;1.00;;;;;;5023632;28;20677;-81
2022/11/02 09:11:15;;;;;;;6.85;1.70;;;12.90;1.00;;;;;;5032895;28;20182;-80
2022/11/02 09:13:41;;;;;;;5.57;1.60;;;13.10;1.00;;;;;;5038765;28;20186;-81
2022/11/02 09:16:07;;;;;;;8.57;1.92;;;13.20;1.00;;;;;;5032264;28;20644;-83
2022/11/02 09:18:32;;;;;;;8.80;2.28;;;13.30;1.00;;;;;;5029660;28;20218;-82
2022/11/02 09:21:03;;;;;;;4.35;2.00;;;13.30;1.00;;;;;;5030608;28;20270;-80
2022/11/02 09:23:29;;;;;;;7.28;3.25;;;13.40;1.00;;;;;;5034737;28;20178;-80
2022/11/02 09:25:56;;;;;;;8.90;4.97;;;13.50;1.00;;;;;;5031016;28;20341;-85
2022/11/02 09:28:21;;;;;;;9.13;2.42;;;13.60;1.00;;;;;;5044749;28;20186;-83
2022/11/02 09:30:47;;;;;;;8.18;3.15;;;13.30;1.00;;;;;;5034473;28;20182;-83
2022/11/02 09:33:13;;;;;;;8.57;3.50;;;13.40;1.00;;;;;;5028012;28;20278;-82
2022/11/02 09:35:41;;;;;;;12.52;5.30;;;13.30;1.00;;;;;;5042068;28;20217;-82
2022/11/02 09:38:07;;;;;;;14.80;5.47;;;13.30;1.00;;;;;;5039434;28;20274;-81
2022/11/02 09:41:01;;;;;;;15.10;6.47;;;13.60;1.00;;;;;;5044077;28;20301;-84
2022/11/02 09:43:32;;;;;;;12.25;5.13;;;13.40;1.00;;;;;;5024623;28;20262;-81
2022/11/02 09:46:04;;;;;;;8.23;3.78;;;13.30;1.00;;;;;;5051757;28;20328;-82
2022/11/02 09:48:42;;;;;;;7.75;3.80;;;13.40;1.00;;;;;;5036617;28;20185;-83
2022/11/02 09:51:12;;;;;;;16.77;7.10;;;13.50;1.00;;;;;;5037963;28;20317;-80
2022/11/02 09:53:47;;;;;;;13.73;5.18;;;13.50;1.00;;;;;;5033939;28;20870;-83
2022/11/02 09:56:18;;;;;;;12.70;5.30;;;13.50;1.00;;;;;;5050492;28;20231;-83
2022/11/02 09:59:06;;;;;;;12.48;6.03;;;13.60;1.00;;;;;;5039188;28;20297;-81
2022/11/02 10:02:04;;;;;;;9.70;5.28;;;13.50;1.00;;;;;;5028825;28;20651;-81
2022/11/02 10:05:00;;;;;;;12.63;6.78;;;13.40;1.00;;;;;;5012537;28;20299;-84
2022/11/02 10:07:31;;;;;;;10.25;5.95;;;13.30;1.00;;;;;;5040017;28;20199;-82
2022/11/02 10:10:07;;;;;;;9.70;3.42;;;13.30;1.00;;;;;;5043084;28;20247;-81
2022/11/02 10:12:40;;;;;;;13.23;6.57;;;13.40;1.00;;;;;;5025751;28;20265;-82
2022/11/02 10:15:19;;;;;;;9.52;4.25;;;13.60;1.00;;;;;;5025249;28;20232;-84
2022/11/02 10:17:47;;;;;;;10.98;3.85;;;13.70;1.00;;;;;;5031357;28;20227;-82
2022/11/02 10:20:26;;;;;;;9.23;3.78;;;13.90;1.00;;;;;;5024046;28;20233;-81
2022/11/02 10:22:58;;;;;;;8.32;3.40;;;14.00;1.00;;;;;;5038478;28;22155;-83
2022/11/02 10:25:24;;;;;;;8.73;3.63;;;14.00;1.00;;;;;;5027460;28;20693;-82
2022/11/02 10:27:55;;;;;;;7.22;2.45;;;14.00;1.00;;;;;;5039094;28;20182;-84
2022/11/02 10:30:21;;;;;;;6.25;1.98;;;14.00;1.00;;;;;;5036510;28;20721;-81
2022/11/02 10:32:51;;;;;;;7.65;2.08;;;14.10;1.00;;;;;;5037393;28;20221;-85
2022/11/02 10:35:31;;;;;;;7.30;2.30;;;14.20;1.00;;;;;;5035629;28;20182;-82
2022/11/02 10:38:24;;;;;;;6.07;1.75;;;14.30;1.00;;;;;;5037811;28;20262;-84
2022/11/02 10:41:01;;;;;;;5.18;2.03;;;14.10;1.00;;;;;;5028921;28;20541;-82
2022/11/02 10:43:32;;;;;;;4.95;1.65;;;14.00;1.00;;;;;;5033853;28;20217;-83
2022/11/02 10:46:27;;;;;;;4.85;1.45;;;13.90;1.00;;;;;;5030773;28;20203;-81
2022/11/02 10:48:52;;;;;;;6.10;1.60;;;14.00;1.00;;;;;;5047580;28;20182;-84
2022/11/02 10:51:20;;;;;;;5.25;1.52;;;14.20;1.00;;;;;;5034352;28;20197;-82
2022/11/02 10:53:49;;;;;;;4.60;1.63;;;14.20;1.00;;;;;;5036220;28;20182;-82
2022/11/02 10:56:19;;;;;;;3.60;1.10;;;14.30;1.00;;;;;;5042271;28;20206;-83
2022/11/02 10:59:00;;;;;;;6.30;1.83;;;14.20;1.00;;;;;;5034405;28;20174;-84
2022/11/02 11:01:27;;;;;;;4.57;1.23;;;14.20;1.00;;;;;;5032882;28;20226;-80
2022/11/02 11:04:00;;;;;;;5.55;1.60;;;14.20;1.00;;;;;;5035853;28;20283;-83
2022/11/02 11:06:46;;;;;;;6.50;1.60;;;14.30;1.00;;;;;;5033815;28;20221;-86
2022/11/02 11:09:17;;;;;;;5.18;1.65;;;14.50;1.00;;;;;;5035655;28;20272;-85
2022/11/02 11:12:01;;;;;;;2.75;1.38;;;14.80;1.00;;;;;;5036050;28;20206;-86
2022/11/02 11:14:29;;;;;;;4.15;1.15;;;14.80;1.00;;;;;;5035939;28;20213;-82
2022/11/02 11:17:00;;;;;;;5.13;1.70;;;15.00;1.00;;;;;;5037218;28;20309;-82
2022/11/02 11:19:40;;;;;;;6.07;1.70;;;15.10;1.00;;;;;;5034989;28;20190;-83
2022/11/02 11:22:25;;;;;;;4.38;1.20;;;14.90;1.00;;;;;;5050928;28;20186;-81
2022/11/02 11:24:52;;;;;;;7.05;1.67;;;14.70;1.00;;;;;;5034616;28;20255;-82
2022/11/02 11:27:21;;;;;;;6.82;2.47;;;14.60;1.00;;;;;;5042579;28;20260;-82
2022/11/02 11:29:50;;;;;;;4.60;1.73;;;14.60;1.00;;;;;;5036752;28;20553;-82
2022/11/02 11:32:35;;;;;;;6.03;1.70;;;14.60;1.00;;;;;;5036310;28;20269;-84
2022/11/02 11:35:04;;;;;;;4.57;1.20;;;14.60;1.00;;;;;;5037270;28;20229;-83
2022/11/02 11:37:30;;;;;;;4.82;1.27;;;14.50;1.00;;;;;;5036218;28;20272;-83
2022/11/02 11:40:15;;;;;;;4.80;1.50;;;14.40;1.00;;;;;;5042502;28;20634;-81
2022/11/02 11:42:41;;;;;;;4.85;1.52;;;14.20;1.00;;;;;;5043086;28;20277;-85
2022/11/02 11:45:19;;;;;;;5.03;1.30;;;14.20;1.00;;;;;;5034981;28;20228;-82
2022/11/02 11:47:50;;;;;;;8.77;1.40;;;14.20;1.00;;;;;;5036120;28;20175;-84
2022/11/02 11:50:16;;;;;;;5.35;1.40;;;14.20;1.00;;;;;;5034580;28;20183;-83
2022/11/02 11:52:42;;;;;;;5.68;1.48;;;14.20;1.00;;;;;;5031520;28;20178;-81
2022/11/02 11:55:24;;;;;;;2.92;1.20;;;14.30;1.00;;;;;;5040496;28;20206;-83
2022/11/02 11:58:23;;;;;;;3.25;1.30;;;14.10;1.00;;;;;;5034362;28;20178;-81
2022/11/02 12:01:06;;;;;;;4.53;1.30;;;14.20;1.00;;;;;;5032932;28;20194;-83
2022/11/02 12:03:32;;;;;;;5.15;1.38;;;14.30;1.00;;;;;;5033526;28;20197;-82
2022/11/02 12:05:57;;;;;;;4.32;1.40;;;14.10;1.00;;;;;;5030116;28;20229;-82
2022/11/02 12:08:48;;;;;;;5.30;1.70;;;14.00;1.00;;;;;;5033291;28;21163;-82
2022/11/02 12:11:43;;;;;;;5.53;1.40;;;13.90;1.00;;;;;;5040905;28;20191;-83
2022/11/02 12:14:36;;;;;;;3.58;1.08;;;13.80;1.00;;;;;;4993821;28;20198;-82
2022/11/02 12:17:20;;;;;;;4.93;2.00;;;13.80;1.00;;;;;;5035922;28;20678;-80
2022/11/02 12:20:12;;;;;;;6.55;1.90;;;13.80;1.00;;;;;;5041911;28;20668;-83
2022/11/02 12:23:00;;;;;;;6.75;2.20;;;13.90;1.00;;;;;;5031861;28;20206;-82
2022/11/02 12:25:30;;;;;;;8.23;2.88;;;14.00;1.00;;;;;;5034322;28;20235;-84
2022/11/02 12:28:02;;;;;;;9.25;3.38;;;14.10;1.00;;;;;;5036911;28;20194;-84
2022/11/02 12:31:00;;;;;;;8.77;3.35;;;14.20;1.00;;;;;;5052066;28;20258;-83
2022/11/02 12:33:32;;;;;;;9.05;3.30;;;14.30;1.00;;;;;;5033984;28;20220;-83
2022/11/02 12:36:18;;;;;;;9.05;3.30;;;14.40;1.00;;;;;;5031049;28;20568;-83
2022/11/02 12:39:02;;;;;;;9.90;4.40;;;14.50;1.00;;;;;;5028179;28;20192;-85
2022/11/02 12:41:38;;;;;;;8.00;3.85;;;14.40;1.00;;;;;;5032750;28;20203;-86
2022/11/02 12:44:41;;;;;;;8.65;4.28;;;14.30;1.00;;;;;;5034287;28;20369;-84
2022/11/02 12:47:28;;;;;;;5.50;3.28;;;14.20;1.00;;;;;;5025056;28;20234;-85
2022/11/02 12:50:16;;;;;;;6.03;2.55;;;14.10;1.00;;;;;;5038903;28;20705;-83
2022/11/02 12:52:41;;;;;;;8.38;3.03;;;14.00;1.00;;;;;;5028845;28;20239;-84
2022/11/02 12:55:33;;;;;;;7.22;3.45;;;14.10;1.00;;;;;;5028558;28;20178;-85
2022/11/02 12:58:05;;;;;;;7.22;3.85;;;13.90;1.00;;;;;;5036768;28;20274;-83
2022/11/02 13:00:35;;;;;;;4.55;2.70;;;13.80;1.00;;;;;;5042592;28;20514;-83
2022/11/02 13:03:42;;;;;;;7.53;3.22;;;13.60;1.00;;;;;;5040403;28;20666;-83
2022/11/02 13:06:12;;;;;;;7.63;5.20;;;13.50;1.00;;;;;;4943661;28;20737;-85
2022/11/02 13:09:01;;;;;;;8.38;2.65;;;13.50;1.00;;;;;;5020461;28;21433;-84
2022/11/02 13:11:41;;;;;;;13.52;4.85;;;13.20;1.00;;;;;;5035989;28;20190;-83
2022/11/02 13:14:13;;;;;;;6.57;3.95;;;13.20;1.00;;;;;;5038226;28;20213;-84
2022/11/02 13:16:51;;;;;;;7.47;3.63;;;13.30;1.00;;;;;;5038683;28;20698;-83
2022/11/02 13:19:22;;;;;;;8.05;4.10;;;13.10;1.00;;;;;;5045817;28;20729;-85
2022/11/02 13:21:54;;;;;;;8.05;2.97;;;13.10;1.00;;;;;;5041309;28;20692;-83
2022/11/02 13:24:28;;;;;;;7.10;2.35;;;13.20;1.00;;;;;;5046967;28;20213;-85
2022/11/02 13:26:54;;;;;;;6.90;2.70;;;13.30;1.00;;;;;;5039054;28;20229;-82
2022/11/02 13:29:29;;;;;;;5.63;2.03;;;13.40;1.00;;;;;;5037914;28;20353;-83
2022/11/02 13:31:59;;;;;;;3.88;1.60;;;13.40;1.00;;;;;;5045785;28;20170;-81
2022/11/02 13:34:36;;;;;;;5.60;2.13;;;13.50;1.00;;;;;;5037411;28;20198;-84